createdAt,value
2019-05-07T00:01:42.343Z,5.37
2019-05-07T00:04:08.244Z,4.63
2019-05-07T00:06:34.077Z,5.20
2019-05-07T00:08:59.942Z,4.03
2019-05-07T00:11:25.877Z,4.40
2019-05-07T00:13:52.286Z,5.47
2019-05-07T00:16:18.281Z,5.40
2019-05-07T00:18:44.114Z,4.90
2019-05-07T00:21:09.993Z,5.57
2019-05-07T00:23:35.812Z,5.50
2019-05-07T00:26:02.373Z,5.90
2019-05-07T00:28:28.194Z,5.90
2019-05-07T00:30:54.042Z,5.50
2019-05-07T00:33:19.863Z,6.60
2019-05-07T00:35:56.243Z,7.03
2019-05-07T00:38:23.980Z,6.47
2019-05-07T00:41:09.738Z,6.10
2019-05-07T00:43:36.444Z,6.40
2019-05-07T00:46:04.311Z,6.77
2019-05-07T00:48:30.155Z,6.47
2019-05-07T00:50:58.021Z,6.07
2019-05-07T00:53:23.909Z,6.20
2019-05-07T00:55:49.707Z,5.80
2019-05-07T00:58:15.545Z,6.00
2019-05-07T01:00:42.035Z,6.80
2019-05-07T01:03:08.034Z,6.77
2019-05-07T01:05:33.872Z,7.23
2019-05-07T01:07:59.738Z,6.67
2019-05-07T01:10:25.574Z,6.70
2019-05-07T01:12:53.153Z,6.80
2019-05-07T01:15:30.359Z,5.93
2019-05-07T01:17:46.896Z,6.50
2019-05-07T01:20:12.833Z,6.40
2019-05-07T01:22:38.703Z,6.83
2019-05-07T01:25:04.848Z,5.90
2019-05-07T01:27:32.180Z,6.40
2019-05-07T01:29:58.133Z,5.67
2019-05-07T01:32:28.931Z,5.53
2019-05-07T01:34:59.451Z,5.67
2019-05-07T01:37:25.273Z,6.60
2019-05-07T01:39:52.979Z,6.10
2019-05-07T01:42:18.871Z,5.83
2019-05-07T01:44:44.827Z,5.07
2019-05-07T01:47:12.867Z,5.17
2019-05-07T01:49:38.411Z,6.40
2019-05-07T01:52:04.235Z,6.33
2019-05-07T01:54:30.094Z,5.17
2019-05-07T01:56:55.935Z,5.70
2019-05-07T01:59:22.521Z,4.87
2019-05-07T02:01:52.299Z,5.90
2019-05-07T02:04:32.688Z,5.37
2019-05-07T02:07:17.342Z,4.97
2019-05-07T02:09:45.184Z,5.77
2019-05-07T02:12:19.075Z,6.43
2019-05-07T02:14:45.497Z,5.80
2019-05-07T02:17:13.462Z,7.10
2019-05-07T02:19:39.119Z,6.50
2019-05-07T02:22:04.970Z,6.47
2019-05-07T02:24:30.795Z,7.17
2019-05-07T02:26:56.630Z,7.10
2019-05-07T02:29:22.834Z,6.97
2019-05-07T02:31:48.709Z,6.70
2019-05-07T02:34:14.560Z,5.83
2019-05-07T02:36:43.334Z,4.83
2019-05-07T02:39:24.028Z,5.53
2019-05-07T02:41:50.106Z,7.53
2019-05-07T02:44:15.979Z,6.60
2019-05-07T02:46:43.714Z,5.93
2019-05-07T02:49:14.527Z,6.10
2019-05-07T02:51:45.341Z,6.00
2019-05-07T02:54:13.504Z,5.67
2019-05-07T02:56:42.979Z,5.40
2019-05-07T02:59:07.062Z,6.30
2019-05-07T03:01:33.813Z,6.53
2019-05-07T03:03:59.733Z,7.10
2019-05-07T03:06:25.592Z,6.20
2019-05-07T03:08:53.399Z,6.13
2019-05-07T03:11:19.482Z,6.20
2019-05-07T03:13:45.314Z,6.27
2019-05-07T03:16:13.031Z,6.13
2019-05-07T03:18:39.034Z,6.73
2019-05-07T03:21:15.871Z,5.23
2019-05-07T03:23:46.381Z,5.67
2019-05-07T03:26:22.879Z,5.50
2019-05-07T03:28:48.883Z,5.77
2019-05-07T03:31:17.440Z,6.90
2019-05-07T03:33:47.070Z,6.10
2019-05-07T03:36:16.525Z,6.07
2019-05-07T03:38:43.744Z,7.83
2019-05-07T03:41:08.606Z,6.20
2019-05-07T03:43:34.450Z,6.20
2019-05-07T03:46:13.731Z,7.27
2019-05-07T03:48:40.300Z,7.07
2019-05-07T03:51:06.128Z,6.33
2019-05-07T03:53:33.786Z,6.90
2019-05-07T03:55:59.737Z,7.10
2019-05-07T03:58:25.606Z,6.43
2019-05-07T04:00:53.549Z,7.13
2019-05-07T04:03:20.829Z,7.07
2019-05-07T04:05:47.062Z,7.30
2019-05-07T04:08:13.471Z,6.00
2019-05-07T04:10:39.451Z,5.80
2019-05-07T04:13:05.306Z,7.03
2019-05-07T04:15:34.289Z,6.53
2019-05-07T04:18:03.312Z,7.80
2019-05-07T04:20:28.389Z,6.47
2019-05-07T04:22:54.429Z,7.30
2019-05-07T04:25:24.067Z,5.70
2019-05-07T04:27:57.714Z,7.17
2019-05-07T04:30:23.954Z,5.90
2019-05-07T04:32:53.015Z,7.33
2019-05-07T04:35:20.944Z,7.63
2019-05-07T04:37:46.790Z,6.57
2019-05-07T04:40:13.405Z,6.70
2019-05-07T04:42:42.607Z,7.63
2019-05-07T04:45:07.653Z,7.73
2019-05-07T04:47:42.570Z,7.63
2019-05-07T04:50:03.723Z,8.53
2019-05-07T04:52:33.639Z,6.80
2019-05-07T04:54:59.689Z,8.20
2019-05-07T04:57:25.674Z,6.63
2019-05-07T04:59:55.732Z,6.83
2019-05-07T05:02:23.663Z,7.27
2019-05-07T05:04:49.548Z,7.63
2019-05-07T05:07:15.396Z,7.20
2019-05-07T05:09:42.608Z,7.57
2019-05-07T05:12:08.691Z,7.57
2019-05-07T05:14:34.550Z,7.60
2019-05-07T05:17:02.072Z,7.97
2019-05-07T05:19:27.964Z,7.23
2019-05-07T05:21:55.722Z,7.43
2019-05-07T05:24:26.599Z,7.80
2019-05-07T05:26:52.655Z,7.80
2019-05-07T05:29:18.580Z,7.30
2019-05-07T05:31:44.443Z,7.50
2019-05-07T05:34:10.295Z,6.77
2019-05-07T05:36:36.237Z,9.00
2019-05-07T05:39:05.681Z,7.40
2019-05-07T05:41:34.031Z,8.00
2019-05-07T05:44:02.499Z,7.83
2019-05-07T05:46:31.929Z,8.20
2019-05-07T05:48:57.894Z,7.50
2019-05-07T05:51:25.633Z,7.87
2019-05-07T05:53:53.393Z,9.17
2019-05-07T05:56:33.043Z,8.53
2019-05-07T05:59:03.885Z,9.77
2019-05-07T06:01:43.810Z,9.27
2019-05-07T06:04:12.427Z,8.50
2019-05-07T06:06:42.233Z,8.87
2019-05-07T06:09:26.649Z,8.40
2019-05-07T06:12:12.654Z,9.03
2019-05-07T06:14:43.348Z,8.40
2019-05-07T06:17:12.928Z,8.70
2019-05-07T06:19:49.288Z,8.50
2019-05-07T06:22:33.687Z,9.70
2019-05-07T06:25:02.383Z,8.50
2019-05-07T06:27:28.415Z,9.20
2019-05-07T06:29:54.275Z,9.10
2019-05-07T06:32:20.712Z,8.27
2019-05-07T06:34:48.019Z,9.13
2019-05-07T06:37:13.863Z,9.60
2019-05-07T06:39:58.024Z,9.50
2019-05-07T06:42:42.764Z,8.77
2019-05-07T06:45:14.090Z,8.37
2019-05-07T06:47:39.947Z,8.40
2019-05-07T06:50:06.171Z,7.80
2019-05-07T06:52:32.110Z,9.00
2019-05-07T06:54:57.955Z,9.53
2019-05-07T06:57:25.423Z,9.40
2019-05-07T07:00:02.775Z,7.80
2019-05-07T07:02:45.618Z,8.03
2019-05-07T07:05:25.840Z,9.37
2019-05-07T07:08:09.202Z,8.43
2019-05-07T07:10:53.306Z,8.13
2019-05-07T07:13:22.150Z,9.93
2019-05-07T07:15:48.111Z,8.07
2019-05-07T07:18:14.082Z,7.67
2019-05-07T07:20:40.203Z,8.50
2019-05-07T07:23:06.048Z,9.20
2019-05-07T07:25:32.680Z,9.77
2019-05-07T07:27:58.575Z,8.63
2019-05-07T07:30:29.188Z,9.00
2019-05-07T07:32:57.086Z,9.77
2019-05-07T07:35:23.027Z,10.20
2019-05-07T07:37:48.879Z,8.47
2019-05-07T07:40:32.812Z,8.67
2019-05-07T07:42:58.727Z,9.17
2019-05-07T07:45:24.607Z,9.70
2019-05-07T07:47:52.918Z,8.60
2019-05-07T07:50:18.217Z,8.50
2019-05-07T07:52:44.056Z,9.37
2019-05-07T07:55:12.651Z,8.47
2019-05-07T07:57:49.236Z,8.50
2019-05-07T08:00:17.284Z,8.70
2019-05-07T08:02:45.124Z,8.90
2019-05-07T08:05:12.523Z,9.90
2019-05-07T08:07:38.537Z,10.23
2019-05-07T08:10:04.779Z,11.33
2019-05-07T08:12:32.496Z,9.87
2019-05-07T08:15:13.487Z,10.40
2019-05-07T08:17:26.446Z,10.07
2019-05-07T08:19:52.296Z,10.00
2019-05-07T08:22:18.137Z,9.93
2019-05-07T08:24:43.988Z,8.90
2019-05-07T08:27:10.106Z,9.53
2019-05-07T08:29:35.956Z,8.83
2019-05-07T08:32:09.452Z,9.37
2019-05-07T08:34:39.966Z,7.40
2019-05-07T08:37:05.807Z,9.40
2019-05-07T08:39:32.540Z,10.23
2019-05-07T08:41:58.623Z,9.80
2019-05-07T08:44:29.365Z,9.63
2019-05-07T08:46:57.116Z,7.70
2019-05-07T08:49:35.618Z,9.80
2019-05-07T08:52:03.026Z,9.10
2019-05-07T08:54:29.474Z,8.57
2019-05-07T08:56:55.531Z,9.20
2019-05-07T08:59:22.383Z,9.57
2019-05-07T09:01:48.230Z,9.53
2019-05-07T09:04:14.078Z,8.23
2019-05-07T09:06:39.919Z,7.77
2019-05-07T09:09:08.374Z,9.53
2019-05-07T09:11:34.222Z,9.60
2019-05-07T09:14:01.836Z,10.23
2019-05-07T09:16:27.791Z,9.27
2019-05-07T09:18:53.627Z,9.90
2019-05-07T09:21:19.487Z,8.37
2019-05-07T09:23:45.412Z,9.07
2019-05-07T09:26:13.225Z,8.20
2019-05-07T09:28:46.759Z,9.00
2019-05-07T09:31:14.605Z,8.57
2019-05-07T09:33:42.369Z,7.80
2019-05-07T09:36:12.046Z,7.83
2019-05-07T09:38:37.900Z,9.47
2019-05-07T09:41:03.762Z,9.53
2019-05-07T09:43:29.679Z,8.90
2019-05-07T09:45:55.539Z,8.77
2019-05-07T09:48:22.131Z,8.97
2019-05-07T09:50:48.117Z,9.80
2019-05-07T09:53:14.059Z,9.17
2019-05-07T09:55:39.926Z,9.17
2019-05-07T09:58:05.782Z,7.97
2019-05-07T10:00:32.131Z,7.60
2019-05-07T10:02:58.014Z,7.60
2019-05-07T10:05:23.864Z,9.90
2019-05-07T10:07:49.806Z,8.80
2019-05-07T10:10:15.950Z,7.77
2019-05-07T10:12:43.818Z,8.60
2019-05-07T10:15:12.058Z,8.57
2019-05-07T10:17:48.438Z,9.80
2019-05-07T10:20:21.651Z,9.17
2019-05-07T10:22:42.939Z,7.67
2019-05-07T10:25:09.009Z,8.10
2019-05-07T10:27:34.975Z,7.00
2019-05-07T10:30:02.413Z,8.33
2019-05-07T10:32:28.581Z,8.57
2019-05-07T10:34:54.401Z,8.70
2019-05-07T10:37:20.262Z,7.50
2019-05-07T10:39:46.393Z,7.10
2019-05-07T10:42:12.458Z,7.40
2019-05-07T10:44:43.321Z,6.03
2019-05-07T10:47:27.489Z,7.13
2019-05-07T10:50:11.930Z,8.07
2019-05-07T10:52:37.961Z,6.43
2019-05-07T10:55:04.097Z,8.40
2019-05-07T10:57:29.938Z,6.97
2019-05-07T10:59:55.766Z,8.10
2019-05-07T11:02:23.518Z,7.03
2019-05-07T11:04:49.381Z,6.80
2019-05-07T11:07:15.251Z,7.80
2019-05-07T11:09:42.007Z,6.77
2019-05-07T11:12:07.932Z,6.30
2019-05-07T11:14:33.761Z,7.90
2019-05-07T11:17:07.628Z,6.60
2019-05-07T11:19:33.466Z,7.50
2019-05-07T11:21:59.323Z,6.07
2019-05-07T11:24:25.149Z,6.80
2019-05-07T11:26:53.011Z,7.20
2019-05-07T11:29:18.769Z,6.47
2019-05-07T11:31:44.613Z,7.70
2019-05-07T11:34:11.962Z,6.40
2019-05-07T11:36:38.240Z,6.47
2019-05-07T11:39:05.079Z,6.63
2019-05-07T11:41:35.596Z,6.40
2019-05-07T11:44:03.366Z,7.70
2019-05-07T11:46:32.773Z,6.20
2019-05-07T11:49:00.678Z,5.83
2019-05-07T11:51:28.431Z,7.03
2019-05-07T11:54:13.322Z,5.60
2019-05-07T11:56:39.279Z,5.90
2019-05-07T11:59:05.236Z,6.33
2019-05-07T12:01:43.859Z,5.43
2019-05-07T12:04:02.013Z,6.07
2019-05-07T12:06:27.980Z,6.33
2019-05-07T12:08:53.837Z,6.23
2019-05-07T12:11:21.746Z,7.00
2019-05-07T12:13:47.436Z,6.50
2019-05-07T12:16:14.193Z,5.70
2019-05-07T12:18:40.153Z,6.30
2019-05-07T12:21:17.399Z,6.00
2019-05-07T12:23:33.887Z,5.93
2019-05-07T12:26:02.050Z,6.27
2019-05-07T12:28:27.465Z,6.33
2019-05-07T12:30:55.207Z,7.03
2019-05-07T12:33:39.335Z,5.87
2019-05-07T12:36:07.006Z,6.17
2019-05-07T12:38:32.920Z,6.10
2019-05-07T12:41:02.436Z,6.17
2019-05-07T12:43:28.343Z,6.10
2019-05-07T12:45:54.228Z,4.83
2019-05-07T12:48:21.739Z,6.40
2019-05-07T12:50:47.763Z,5.53
2019-05-07T12:53:27.716Z,5.20
2019-05-07T12:55:58.362Z,5.80
2019-05-07T12:58:24.747Z,6.73
2019-05-07T13:00:58.619Z,6.07
2019-05-07T13:03:29.389Z,6.33
2019-05-07T13:05:55.294Z,5.67
2019-05-07T13:08:22.980Z,18.90
2019-05-07T13:10:49.137Z,11.70
2019-05-07T13:13:15.493Z,6.23
2019-05-07T13:15:43.305Z,8.40
2019-05-07T13:18:09.235Z,5.80
2019-05-07T13:20:35.380Z,6.17
2019-05-07T13:23:01.439Z,6.57
2019-05-07T13:25:28.240Z,11.23
2019-05-07T13:27:56.644Z,8.30
2019-05-07T13:30:22.833Z,6.57
2019-05-07T13:32:49.000Z,6.40
2019-05-07T13:35:15.065Z,6.47
2019-05-07T13:37:46.322Z,6.53
2019-05-07T13:40:31.541Z,5.47
2019-05-07T13:43:02.974Z,5.57
2019-05-07T13:45:31.794Z,4.70
2019-05-07T13:48:16.092Z,5.40
2019-05-07T13:50:42.078Z,5.23
2019-05-07T13:53:08.037Z,5.60
2019-05-07T13:55:34.091Z,5.93
2019-05-07T13:58:00.045Z,5.60
2019-05-07T14:00:27.844Z,4.77
2019-05-07T14:02:54.918Z,6.23
2019-05-07T14:05:21.764Z,6.33
2019-05-07T14:07:47.663Z,6.57
2019-05-07T14:10:13.637Z,6.10
2019-05-07T14:12:39.793Z,5.60
2019-05-07T14:15:05.838Z,5.90
2019-05-07T14:17:31.782Z,6.10
2019-05-07T14:19:57.632Z,6.00
2019-05-07T14:22:23.516Z,6.90
2019-05-07T14:24:49.755Z,7.47
2019-05-07T14:27:15.716Z,6.63
2019-05-07T14:29:42.437Z,7.30
2019-05-07T14:32:12.695Z,7.40
2019-05-07T14:34:56.578Z,7.20
2019-05-07T14:37:24.332Z,7.00
2019-05-07T14:39:51.790Z,6.90
2019-05-07T14:42:21.994Z,7.33
2019-05-07T14:44:48.683Z,7.63
2019-05-07T14:47:16.048Z,6.77
2019-05-07T14:49:44.249Z,7.20
2019-05-07T14:52:09.717Z,7.20
2019-05-07T14:54:35.846Z,6.93
2019-05-07T14:57:02.245Z,6.53
2019-05-07T14:59:28.129Z,7.10
2019-05-07T15:01:54.077Z,7.73
2019-05-07T15:04:22.140Z,7.40
2019-05-07T15:06:48.216Z,6.93
2019-05-07T15:09:14.158Z,7.20
2019-05-07T15:11:42.334Z,7.53
2019-05-07T15:14:08.049Z,7.20
2019-05-07T15:16:33.990Z,6.47
2019-05-07T15:19:00.287Z,7.30
2019-05-07T15:21:26.255Z,7.10
2019-05-07T15:23:52.988Z,6.47
2019-05-07T15:26:19.112Z,6.77
2019-05-07T15:28:46.948Z,6.43
2019-05-07T15:31:17.427Z,6.07
2019-05-07T15:33:43.380Z,6.50
2019-05-07T15:36:09.328Z,6.63
2019-05-07T15:38:35.261Z,6.93
2019-05-07T15:41:02.182Z,6.50
2019-05-07T15:43:28.234Z,6.37
2019-05-07T15:45:54.090Z,7.00
2019-05-07T15:48:21.923Z,6.47
2019-05-07T15:50:47.675Z,6.83
2019-05-07T15:53:21.879Z,6.10
2019-05-07T15:55:47.943Z,6.87
2019-05-07T15:58:13.797Z,13.90
2019-05-07T16:00:39.739Z,18.40
2019-05-07T16:03:07.529Z,19.03
2019-05-07T16:05:33.367Z,20.90
2019-05-07T16:07:59.233Z,10.40
2019-05-07T16:10:25.066Z,5.90
2019-05-07T16:12:53.046Z,6.30
2019-05-07T16:15:19.160Z,6.63
2019-05-07T16:17:47.033Z,6.10
2019-05-07T16:20:14.305Z,6.53
2019-05-07T16:22:42.429Z,7.47
2019-05-07T16:25:08.360Z,6.67
2019-05-07T16:27:36.152Z,6.10
2019-05-07T16:30:04.533Z,5.97
2019-05-07T16:32:32.675Z,5.93
2019-05-07T16:34:58.318Z,6.53
2019-05-07T16:37:24.186Z,6.00
2019-05-07T16:39:50.032Z,6.50
2019-05-07T16:42:15.857Z,5.30
2019-05-07T16:44:41.910Z,5.87
2019-05-07T16:47:07.796Z,5.80
2019-05-07T16:49:33.637Z,6.77
2019-05-07T16:52:01.688Z,6.30
2019-05-07T16:54:27.276Z,5.80
2019-05-07T16:57:12.201Z,5.93
2019-05-07T16:59:38.207Z,5.70
2019-05-07T17:02:05.949Z,6.20
2019-05-07T17:04:32.029Z,6.03
2019-05-07T17:06:59.868Z,6.33
2019-05-07T17:09:27.359Z,5.73
2019-05-07T17:11:53.217Z,5.70
2019-05-07T17:14:19.100Z,5.40
2019-05-07T17:16:44.919Z,4.80
2019-05-07T17:19:12.293Z,5.40
2019-05-07T17:21:38.149Z,5.50
2019-05-07T17:24:03.996Z,5.30
2019-05-07T17:26:29.840Z,5.60
2019-05-07T17:28:55.679Z,6.03
2019-05-07T17:31:22.916Z,4.90
2019-05-07T17:33:49.095Z,5.57
2019-05-07T17:36:14.937Z,6.40
2019-05-07T17:38:42.690Z,6.30
2019-05-07T17:41:13.600Z,6.83
2019-05-07T17:43:36.359Z,6.47
2019-05-07T17:46:02.785Z,6.47
2019-05-07T17:48:37.222Z,6.70
2019-05-07T17:51:05.103Z,6.10
2019-05-07T17:53:32.066Z,6.07
2019-05-07T17:55:58.193Z,5.77
2019-05-07T17:58:24.059Z,5.17
2019-05-07T18:00:52.896Z,5.10
2019-05-07T18:03:32.005Z,5.30
2019-05-07T18:05:57.306Z,4.70
2019-05-07T18:08:23.150Z,5.00
2019-05-07T18:10:48.975Z,4.83
2019-05-07T18:13:14.825Z,4.90
2019-05-07T18:15:42.613Z,5.37
2019-05-07T18:18:12.607Z,5.53
2019-05-07T18:20:38.201Z,4.83
2019-05-07T18:23:07.080Z,5.77
2019-05-07T18:25:32.519Z,5.43
2019-05-07T18:27:58.454Z,5.00
2019-05-07T18:30:24.631Z,4.97
2019-05-07T18:32:52.408Z,5.80
2019-05-07T18:35:18.304Z,5.27
2019-05-07T18:37:46.460Z,5.37
2019-05-07T18:40:12.742Z,6.30
2019-05-07T18:42:38.666Z,6.67
2019-05-07T18:45:05.626Z,5.83
2019-05-07T18:47:33.094Z,6.07
2019-05-07T18:49:59.310Z,6.77
2019-05-07T18:52:25.220Z,7.20
2019-05-07T18:54:52.063Z,7.97
2019-05-07T18:57:18.141Z,7.60
2019-05-07T18:59:44.105Z,7.93
2019-05-07T19:02:10.052Z,7.20
2019-05-07T19:04:35.922Z,8.33
2019-05-07T19:07:02.512Z,7.10
2019-05-07T19:09:31.973Z,8.20
2019-05-07T19:11:57.973Z,7.80
2019-05-07T19:14:23.861Z,7.07
2019-05-07T19:16:49.747Z,7.90
2019-05-07T19:19:15.604Z,8.10
2019-05-07T19:21:42.305Z,9.20
2019-05-07T19:24:08.451Z,9.83
2019-05-07T19:26:34.358Z,10.43
2019-05-07T19:29:02.446Z,11.20
2019-05-07T19:31:28.174Z,10.93
2019-05-07T19:33:54.070Z,9.90
2019-05-07T19:36:22.225Z,12.80
2019-05-07T19:38:47.788Z,13.80
2019-05-07T19:41:13.624Z,13.63
2019-05-07T19:43:41.777Z,12.03
2019-05-07T19:46:07.319Z,12.70
2019-05-07T19:48:33.172Z,12.70
2019-05-07T19:50:59.166Z,13.10
2019-05-07T19:53:25.034Z,12.57
2019-05-07T19:55:52.812Z,12.03
2019-05-07T19:58:18.995Z,12.70
2019-05-07T20:00:45.415Z,11.23
2019-05-07T20:03:13.148Z,13.63
2019-05-07T20:05:39.115Z,13.90
2019-05-07T20:08:04.944Z,14.10
2019-05-07T20:10:51.898Z,12.10
2019-05-07T20:13:17.849Z,12.80
2019-05-07T20:15:45.721Z,11.73
2019-05-07T20:18:12.398Z,12.90
2019-05-07T20:20:38.418Z,10.73
2019-05-07T20:23:04.292Z,11.90
2019-05-07T20:25:30.160Z,11.07
2019-05-07T20:27:56.005Z,12.07
2019-05-07T20:30:22.872Z,10.93
2019-05-07T20:32:48.835Z,10.40
2019-05-07T20:35:14.793Z,11.23
2019-05-07T20:37:41.979Z,11.57
2019-05-07T20:40:08.118Z,11.13
2019-05-07T20:42:33.958Z,12.40
2019-05-07T20:44:59.891Z,11.50
2019-05-07T20:47:25.731Z,13.70
2019-05-07T20:49:51.701Z,14.40
2019-05-07T20:52:17.664Z,13.70
2019-05-07T20:54:45.411Z,14.33
2019-05-07T20:57:15.966Z,14.87
2019-05-07T20:59:41.809Z,12.70
2019-05-07T21:02:07.683Z,15.43
2019-05-07T21:04:33.542Z,16.90
2019-05-07T21:06:59.406Z,13.33
2019-05-07T21:09:25.240Z,14.90
2019-05-07T21:11:51.085Z,13.57
2019-05-07T21:14:16.940Z,9.77
2019-05-07T21:16:42.766Z,10.87
2019-05-07T21:19:08.655Z,8.00
2019-05-07T21:21:34.513Z,10.60
2019-05-07T21:24:02.063Z,8.80
2019-05-07T21:26:28.112Z,9.30
2019-05-07T21:29:03.056Z,10.00
2019-05-07T21:31:28.775Z,9.97
2019-05-07T21:33:54.610Z,10.53
2019-05-07T21:36:22.599Z,10.40
2019-05-07T21:38:48.215Z,9.23
2019-05-07T21:41:14.069Z,11.00
2019-05-07T21:43:43.081Z,11.70
2019-05-07T21:46:07.706Z,11.30
2019-05-07T21:48:33.542Z,11.20
2019-05-07T21:50:59.383Z,9.87
2019-05-07T21:53:45.097Z,9.40
2019-05-07T21:56:30.919Z,10.03
2019-05-07T21:59:16.750Z,9.30
2019-05-07T22:02:02.459Z,8.27
2019-05-07T22:07:05.515Z,10.10
2019-05-07T22:09:33.006Z,10.70
2019-05-07T22:12:18.990Z,9.07
2019-05-07T22:14:44.857Z,10.30
2019-05-07T22:17:12.563Z,8.57
2019-05-07T22:19:38.440Z,8.40
2019-05-07T22:22:04.295Z,9.87
2019-05-07T22:24:30.149Z,9.77
2019-05-07T22:26:55.997Z,9.97
2019-05-07T22:29:22.750Z,9.47
2019-05-07T22:32:11.759Z,10.40
2019-05-07T22:37:24.599Z,11.50
2019-05-07T22:39:50.447Z,12.07
2019-05-07T22:42:16.305Z,10.90
2019-05-07T22:44:42.655Z,10.40
2019-05-07T22:49:44.904Z,9.90
2019-05-07T22:52:12.820Z,9.87
2019-05-07T22:54:39.649Z,9.10
2019-05-07T22:59:52.841Z,9.63
2019-05-07T23:02:18.681Z,9.30
2019-05-07T23:04:44.519Z,8.13
2019-05-07T23:07:12.663Z,7.10
2019-05-07T23:09:38.093Z,7.40
2019-05-07T23:12:03.947Z,6.87
2019-05-07T23:14:29.786Z,7.00
2019-05-07T23:16:55.618Z,6.97
2019-05-07T23:19:22.063Z,9.37
2019-05-07T23:21:49.227Z,8.93
2019-05-07T23:24:15.075Z,7.70
2019-05-07T23:26:50.320Z,7.17
2019-05-07T23:29:08.644Z,8.27
2019-05-07T23:31:34.508Z,8.53
2019-05-07T23:34:01.894Z,7.30
2019-05-07T23:36:28.122Z,6.97
2019-05-07T23:38:53.941Z,7.03
2019-05-07T23:41:41.952Z,8.00
2019-05-07T23:44:27.278Z,7.77
2019-05-07T23:46:53.135Z,10.10
2019-05-07T23:49:18.949Z,7.57
2019-05-07T23:51:44.847Z,7.37
2019-05-07T23:54:12.186Z,8.07
2019-05-07T23:56:38.416Z,7.53
2019-05-07T23:59:04.281Z,7.57
